Time;durP1;ratioP1;P1;durP2;ratioP2;P2;SDS_P1;SDS_P2;PMS_P1;PMS_P2;Temp;Humidity;BMP_temperature;BMP_pressure;BME280_temperature;BME280_humidity;BME280_pressure;Samples;Min_cycle;Max_cycle;Signal;HPM_P1;HPM_P2
2024/01/27 00:01:21;;;;;;;6.88;2.33;;;;;;;8.24;56.13;101928.09;10366892;28;21886;-64
2024/01/27 00:06:22;;;;;;;8.07;2.38;;;;;;;8.35;56.69;101933.81;10359908;28;20037;-62
2024/01/27 00:11:25;;;;;;;5.55;1.80;;;;;;;8.29;56.02;101931.44;10366284;28;20711;-63
2024/01/27 00:16:28;;;;;;;6.05;1.80;;;;;;;8.47;56.38;101930.63;10363596;28;20045;-64
2024/01/27 00:21:30;;;;;;;4.93;1.75;;;;;;;8.59;56.39;101920.41;10366926;28;20076;-62
2024/01/27 00:26:32;;;;;;;5.47;1.88;;;;;;;8.55;58.20;101927.63;10362402;28;20563;-62
2024/01/27 00:31:33;;;;;;;5.00;1.85;;;;;;;8.55;57.02;101934.72;10354291;28;20053;-62
2024/01/27 00:36:36;;;;;;;5.70;2.03;;;;;;;8.55;59.75;101940.91;10348317;28;20056;-63
2024/01/27 00:41:38;;;;;;;7.30;2.20;;;;;;;8.33;57.52;101925.03;10375409;28;20058;-65
2024/01/27 00:46:39;;;;;;;5.68;2.38;;;;;;;8.05;58.79;101944.81;10365833;28;20049;-62
2024/01/27 00:51:41;;;;;;;7.28;1.88;;;;;;;8.17;59.31;101943.44;10359989;28;20730;-62
2024/01/27 00:56:43;;;;;;;6.00;2.33;;;;;;;8.34;58.72;101955.09;10368431;28;20077;-65
2024/01/27 01:01:45;;;;;;;9.75;1.88;;;;;;;8.29;57.34;101931.44;10366039;28;20218;-62
2024/01/27 01:06:46;;;;;;;5.88;2.20;;;;;;;8.30;58.21;101960.53;10371600;28;20169;-63
2024/01/27 01:11:47;;;;;;;6.13;1.92;;;;;;;8.22;58.21;101962.66;10361717;28;20718;-64
2024/01/27 01:16:49;;;;;;;5.32;2.45;;;;;;;8.24;58.67;101971.44;10372424;28;20908;-63
2024/01/27 01:21:51;;;;;;;5.65;1.50;;;;;;;8.23;58.12;101964.38;10342510;28;20742;-63
2024/01/27 01:26:52;;;;;;;6.80;2.33;;;;;;;8.17;57.23;101966.41;10387522;28;20929;-62
2024/01/27 01:31:54;;;;;;;7.00;2.13;;;;;;;8.08;58.05;101975.66;10366325;28;20079;-62
2024/01/27 01:36:57;;;;;;;7.57;2.25;;;;;;;8.06;58.74;101977.50;10404805;28;20057;-63
2024/01/27 01:42:01;;;;;;;7.03;2.00;;;;;;;8.07;58.58;101982.72;10402435;28;20083;-62
2024/01/27 01:47:03;;;;;;;7.65;1.92;;;;;;;8.01;58.95;102000.72;10362790;28;20700;-62
2024/01/27 01:52:05;;;;;;;6.07;2.05;;;;;;;7.97;59.03;101987.59;10393396;28;20541;-63
2024/01/27 01:57:07;;;;;;;9.38;2.50;;;;;;;7.93;59.14;101998.38;10366392;28;20045;-63
2024/01/27 02:02:09;;;;;;;7.22;2.17;;;;;;;7.90;59.06;101998.50;10360872;28;20054;-63
2024/01/27 02:07:11;;;;;;;8.95;2.72;;;;;;;7.83;60.55;101995.22;10351782;28;20763;-65
2024/01/27 02:12:14;;;;;;;5.40;1.97;;;;;;;7.84;61.30;102001.41;10362925;28;20045;-63
2024/01/27 02:17:16;;;;;;;8.85;2.20;;;;;;;7.89;61.29;101999.44;10359565;28;20551;-61
2024/01/27 02:22:18;;;;;;;5.60;1.88;;;;;;;7.77;61.36;101990.19;10356199;28;20045;-64
2024/01/27 02:27:19;;;;;;;7.38;2.60;;;;;;;7.81;61.20;101998.88;10360929;28;20065;-63
2024/01/27 02:32:21;;;;;;;8.55;1.98;;;;;;;7.70;60.78;102001.97;10360001;28;20738;-65
2024/01/27 02:37:22;;;;;;;7.60;2.05;;;;;;;7.66;60.89;102010.97;10357845;28;20530;-62
2024/01/27 02:42:24;;;;;;;9.23;2.58;;;;;;;7.63;61.04;102017.25;10354660;28;20057;-63
2024/01/27 02:47:26;;;;;;;8.82;2.58;;;;;;;7.56;60.94;102016.63;10355508;28;20688;-63
2024/01/27 02:52:28;;;;;;;6.65;2.03;;;;;;;7.54;61.58;102022.94;10362173;28;20444;-61
2024/01/27 02:57:29;;;;;;;9.57;2.38;;;;;;;7.55;60.75;102012.28;10362155;28;20056;-63
2024/01/27 03:02:31;;;;;;;10.13;2.30;;;;;;;7.53;61.69;102026.50;10356768;28;20049;-62
2024/01/27 03:07:32;;;;;;;8.18;2.50;;;;;;;7.54;62.82;102022.94;10359197;28;20188;-63
2024/01/27 03:12:34;;;;;;;6.65;2.78;;;;;;;7.50;62.79;102029.28;10376129;28;20061;-62
2024/01/27 03:17:35;;;;;;;3.95;1.83;;;;;;;7.37;63.53;102005.91;10361738;28;20625;-63
2024/01/27 03:22:37;;;;;;;6.43;1.90;;;;;;;7.40;62.87;102020.81;10358376;28;20507;-64
2024/01/27 03:27:38;;;;;;;5.10;1.48;;;;;;;7.33;63.24;102011.38;10349359;28;20068;-62
2024/01/27 03:32:42;;;;;;;5.97;2.38;;;;;;;7.43;63.63;102039.22;10360374;28;20150;-63
2024/01/27 03:37:45;;;;;;;6.10;1.90;;;;;;;7.40;63.38;102020.81;10355576;28;20045;-63
2024/01/27 03:42:47;;;;;;;5.65;2.30;;;;;;;7.41;63.55;102030.50;10356800;28;20106;-61
2024/01/27 03:47:50;;;;;;;10.18;2.60;;;;;;;7.37;63.24;102028.88;10360835;28;20050;-63
2024/01/27 03:52:53;;;;;;;6.45;2.10;;;;;;;7.16;63.14;102022.59;10367577;28;20143;-62
2024/01/27 03:57:55;;;;;;;6.95;2.15;;;;;;;7.11;62.78;102027.22;10359148;28;20068;-63
2024/01/27 04:02:57;;;;;;;8.88;2.58;;;;;;;7.05;63.00;102045.06;10371258;28;20053;-66
2024/01/27 04:08:01;;;;;;;7.38;2.53;;;;;;;6.92;63.02;102048.22;10358758;28;20060;-64
2024/01/27 04:13:03;;;;;;;6.55;2.08;;;;;;;6.78;63.74;102043.44;10361616;28;20120;-63
2024/01/27 04:18:08;;;;;;;6.18;1.83;;;;;;;6.67;65.12;102049.97;10361569;28;20729;-63
2024/01/27 04:23:09;;;;;;;;;;;;;;;6.62;64.85;102049.28;10372442;28;20049;-62
2024/01/27 04:28:12;;;;;;;5.45;2.42;;;;;;;6.59;64.95;102054.69;10355947;28;19937;-64
2024/01/27 04:33:14;;;;;;;5.88;2.17;;;;;;;6.60;65.58;102048.44;10362192;28;20084;-64
2024/01/27 04:38:16;;;;;;;9.70;2.97;;;;;;;6.51;65.69;102051.44;10360423;28;20780;-64
2024/01/27 04:43:20;;;;;;;6.63;3.10;;;;;;;6.43;65.59;102056.97;10357530;28;20041;-63
2024/01/27 04:48:21;;;;;;;7.35;2.33;;;;;;;6.34;65.41;102060.81;10357233;28;20053;-63
2024/01/27 04:53:25;;;;;;;6.28;2.47;;;;;;;6.18;65.56;102065.75;10363704;28;20064;-63
2024/01/27 04:58:27;;;;;;;7.28;3.03;;;;;;;6.04;66.51;102049.47;10366081;28;20056;-63
2024/01/27 05:03:28;;;;;;;5.88;2.42;;;;;;;6.05;66.82;102055.63;10362148;28;20057;-63
2024/01/27 05:08:30;;;;;;;7.70;2.55;;;;;;;6.08;66.94;102069.63;10389653;28;20052;-64
2024/01/27 05:13:32;;;;;;;8.15;2.83;;;;;;;6.06;67.35;102091.72;10411364;28;20629;-63
2024/01/27 05:18:35;;;;;;;7.20;2.50;;;;;;;5.95;66.95;102092.03;10364310;28;20081;-61
2024/01/27 05:23:37;;;;;;;5.05;2.15;;;;;;;5.87;67.92;102094.03;10342222;28;20663;-62
2024/01/27 05:28:40;;;;;;;6.13;2.17;;;;;;;5.79;67.88;102094.28;10372169;28;20048;-63
2024/01/27 05:33:42;;;;;;;4.90;2.42;;;;;;;5.80;68.56;102114.53;10359268;28;20076;-63
2024/01/27 05:38:44;;;;;;;6.65;2.03;;;;;;;5.77;69.04;102101.41;10359040;28;20127;-63
2024/01/27 05:43:48;;;;;;;7.95;3.33;;;;;;;5.79;68.37;102100.44;10353398;28;20135;-63
2024/01/27 05:48:53;;;;;;;7.55;2.92;;;;;;;5.56;68.86;102066.81;10361302;28;20124;-63
2024/01/27 05:53:55;;;;;;;12.88;3.70;;;;;;;5.54;68.72;102095.06;10360936;28;20078;-63
2024/01/27 05:58:58;;;;;;;5.78;2.30;;;;;;;5.68;70.24;102122.84;10356149;28;20065;-64
2024/01/27 06:04:00;;;;;;;9.35;3.58;;;;;;;5.68;70.18;102130.75;10371377;28;20188;-64
2024/01/27 06:09:03;;;;;;;5.88;2.67;;;;;;;5.68;69.78;102128.97;10362239;28;20689;-63
2024/01/27 06:14:06;;;;;;;5.97;2.70;;;;;;;5.60;69.64;102125.69;10353844;28;20050;-63
2024/01/27 06:19:09;;;;;;;8.43;2.15;;;;;;;5.64;70.02;102133.50;10359351;28;20068;-63
2024/01/27 06:24:14;;;;;;;6.75;2.67;;;;;;;5.63;69.91;102121.19;10361770;28;20081;-62
2024/01/27 06:29:18;;;;;;;5.90;2.67;;;;;;;5.68;70.64;102141.34;10355880;28;20089;-64
2024/01/27 06:34:20;;;;;;;5.38;3.00;;;;;;;5.57;70.13;102142.50;10357625;28;20076;-63
2024/01/27 06:39:22;;;;;;;5.65;2.45;;;;;;;5.53;70.59;102134.72;10370314;28;20056;-63
2024/01/27 06:44:24;;;;;;;4.90;2.58;;;;;;;5.62;71.25;102156.44;10360028;28;20049;-62
2024/01/27 06:49:26;;;;;;;6.20;3.72;;;;;;;5.55;71.13;102148.75;10361271;28;20066;-63
2024/01/27 06:54:27;;;;;;;10.70;3.17;;;;;;;5.63;71.77;102159.94;10370745;28;20064;-62
2024/01/27 06:59:29;;;;;;;11.20;3.53;;;;;;;5.60;72.43;102153.00;10360232;28;20143;-64
2024/01/27 07:04:30;;;;;;;8.10;2.50;;;;;;;5.55;70.50;102154.88;10359420;28;21070;-64
2024/01/27 07:09:34;;;;;;;6.40;2.70;;;;;;;5.65;71.75;102163.41;10358042;28;20060;-63
2024/01/27 07:14:37;;;;;;;7.32;2.80;;;;;;;5.61;72.04;102157.34;10356975;28;20166;-63
2024/01/27 07:19:39;;;;;;;6.32;2.72;;;;;;;5.39;71.79;102138.63;10349270;28;20742;-62
2024/01/27 07:24:41;;;;;;;6.72;3.03;;;;;;;5.37;71.07;102150.13;10345778;28;20107;-62
2024/01/27 07:29:44;;;;;;;6.47;2.83;;;;;;;5.27;71.48;102155.69;10355976;28;20536;-63
2024/01/27 07:34:45;;;;;;;6.70;2.70;;;;;;;5.21;71.28;102161.13;10348306;28;20517;-61
2024/01/27 07:39:48;;;;;;;5.68;2.58;;;;;;;5.08;70.93;102157.94;10359809;28;20174;-63
2024/01/27 07:44:50;;;;;;;8.10;3.50;;;;;;;4.98;70.82;102166.16;10360183;28;20057;-62
2024/01/27 07:49:52;;;;;;;6.63;2.90;;;;;;;4.84;72.03;102167.38;10350416;28;20152;-63
2024/01/27 07:54:54;;;;;;;6.07;2.80;;;;;;;4.85;71.72;102174.41;10361562;28;20060;-64
2024/01/27 07:59:56;;;;;;;8.85;2.70;;;;;;;4.82;71.98;102163.94;10352127;28;20054;-63
2024/01/27 08:04:58;;;;;;;7.68;3.80;;;;;;;4.79;72.59;102174.56;10348940;28;20057;-64
2024/01/27 08:10:00;;;;;;;6.05;2.92;;;;;;;4.81;72.73;102183.31;10355892;28;20593;-65
2024/01/27 08:15:02;;;;;;;6.65;2.80;;;;;;;4.96;72.18;102193.47;10358922;28;20053;-64
2024/01/27 08:20:04;;;;;;;6.47;2.25;;;;;;;5.13;71.65;102200.06;10360405;28;20050;-62
2024/01/27 08:25:06;;;;;;;4.25;2.80;;;;;;;5.14;71.56;102191.25;10351796;28;20172;-63
2024/01/27 08:30:08;;;;;;;8.00;3.40;;;;;;;5.27;71.26;102203.22;10347381;28;20045;-63
2024/01/27 08:35:10;;;;;;;6.75;3.55;;;;;;;5.16;71.21;102202.63;10361199;28;20053;-64
2024/01/27 08:40:13;;;;;;;7.28;2.67;;;;;;;5.26;70.93;102216.47;10362831;28;20777;-63
2024/01/27 08:45:15;;;;;;;8.77;2.70;;;;;;;5.30;70.26;102212.84;10360118;28;22170;-63
2024/01/27 08:50:16;;;;;;;6.55;3.08;;;;;;;5.24;70.79;102218.25;10367462;28;20627;-64
2024/01/27 08:55:23;;;;;;;7.38;3.25;;;;;;;5.31;71.73;102226.00;10401064;28;20057;-62
2024/01/27 09:00:25;;;;;;;6.13;3.33;;;;;;;5.37;71.00;102229.38;10364411;28;20054;-63
2024/01/27 09:05:27;;;;;;;7.68;3.28;;;;;;;5.44;70.66;102229.16;10371682;28;20083;-64
2024/01/27 09:10:29;;;;;;;7.38;3.40;;;;;;;5.49;71.30;102227.28;10383490;28;20060;-63
2024/01/27 09:15:31;;;;;;;6.97;3.13;;;;;;;5.63;70.45;102232.16;10348677;28;20543;-62
2024/01/27 09:20:33;;;;;;;9.20;3.72;;;;;;;5.75;69.59;102235.34;10369838;28;20122;-65
2024/01/27 09:25:37;;;;;;;7.53;3.47;;;;;;;5.83;68.93;102238.66;10357920;28;20052;-64
2024/01/27 09:30:38;;;;;;;8.25;3.30;;;;;;;5.92;68.66;102238.38;10360122;28;20061;-63
2024/01/27 09:35:40;;;;;;;5.88;3.08;;;;;;;6.08;68.48;102238.84;10358876;28;20045;-63
2024/01/27 09:40:42;;;;;;;6.25;3.05;;;;;;;6.25;67.43;102238.31;10356540;28;20785;-63
2024/01/27 09:45:45;;;;;;;6.53;3.10;;;;;;;6.53;67.14;102248.91;10380809;28;20130;-63
2024/01/27 09:50:51;;;;;;;;;;;;;;;6.77;66.37;102253.44;10347772;28;20045;-64
2024/01/27 09:55:53;;;;;;;7.28;2.83;;;;;;;7.17;66.36;102260.06;10352852;28;19937;-63
2024/01/27 10:00:57;;;;;;;6.45;2.78;;;;;;;7.49;64.59;102264.25;10356464;28;20044;-63
2024/01/27 10:06:00;;;;;;;8.73;4.10;;;;;;;8.22;61.19;102249.19;10359835;28;20526;-63
2024/01/27 10:11:09;;;;;;;6.55;2.97;;;;;;;8.30;60.36;102260.38;10363685;28;20081;-63
2024/01/27 10:16:12;;;;;;;8.02;4.00;;;;;;;8.36;60.58;102240.69;10355218;28;20114;-63
2024/01/27 10:21:18;;;;;;;7.88;3.40;;;;;;;8.73;58.89;102241.88;10363425;28;20077;-63
2024/01/27 10:26:20;;;;;;;12.05;3.88;;;;;;;9.05;57.77;102249.44;10357292;28;20140;-63
2024/01/27 10:31:26;;;;;;;7.95;3.63;;;;;;;9.37;57.37;102243.59;10383912;28;20057;-63
2024/01/27 10:36:39;;;;;;;7.25;2.80;;;;;;;9.27;57.11;102222.81;10356160;28;20763;-63
2024/01/27 10:41:44;;;;;;;7.35;3.10;;;;;;;9.38;56.24;102236.50;10356990;28;20040;-64
2024/01/27 10:46:48;;;;;;;10.15;3.50;;;;;;;9.82;56.34;102212.38;10349758;28;20129;-63
2024/01/27 10:51:57;;;;;;;10.55;4.40;;;;;;;10.66;53.11;102203.09;10355110;28;20041;-63
2024/01/27 10:57:02;;;;;;;9.85;4.28;;;;;;;11.38;51.26;102190.53;10363256;28;20060;-63
2024/01/27 11:02:09;;;;;;;6.32;3.65;;;;;;;11.92;50.17;102183.16;10356278;28;20056;-63
2024/01/27 11:07:12;;;;;;;9.02;3.92;;;;;;;12.47;47.82;102173.00;10341675;28;20100;-64
2024/01/27 11:12:13;;;;;;;9.23;3.63;;;;;;;12.75;47.19;102179.41;10354014;28;20064;-63
2024/01/27 11:17:16;;;;;;;8.43;3.85;;;;;;;13.19;44.15;102179.38;10338227;28;20042;-62
2024/01/27 11:22:26;;;;;;;8.35;3.60;;;;;;;13.77;44.43;102150.00;10344552;28;20053;-63
2024/01/27 11:27:29;;;;;;;5.80;2.95;;;;;;;14.13;43.20;102151.25;10363341;28;20096;-65
2024/01/27 11:32:31;;;;;;;8.48;4.13;;;;;;;14.52;42.51;102149.56;10370662;28;20135;-64
2024/01/27 11:37:33;;;;;;;8.82;3.70;;;;;;;14.91;41.18;102155.91;10355811;28;20085;-63
2024/01/27 11:42:35;;;;;;;8.32;2.92;;;;;;;15.16;40.53;102173.84;10357072;28;20049;-64
2024/01/27 11:47:36;;;;;;;9.02;3.70;;;;;;;15.50;39.69;102171.44;10357058;28;20061;-64
2024/01/27 11:52:38;;;;;;;6.90;3.28;;;;;;;15.63;38.85;102170.59;10355937;28;20058;-65
2024/01/27 11:57:41;;;;;;;9.00;3.45;;;;;;;15.98;38.46;102180.63;10358709;28;20146;-65
2024/01/27 12:02:43;;;;;;;8.00;3.47;;;;;;;16.30;37.00;102185.47;10399674;28;22783;-64
2024/01/27 12:07:45;;;;;;;5.57;2.95;;;;;;;16.36;37.78;102182.31;10382318;28;20059;-67
2024/01/27 12:12:47;;;;;;;7.18;2.78;;;;;;;17.17;37.34;102180.66;10361824;28;20057;-64
2024/01/27 12:17:52;;;;;;;10.63;5.25;;;;;;;17.58;35.42;102187.31;10365105;28;20096;-64
2024/01/27 12:23:04;;;;;;;10.35;3.15;;;;;;;17.82;34.56;102186.34;10378726;28;20061;-65
2024/01/27 12:28:07;;;;;;;8.88;2.78;;;;;;;17.72;33.76;102177.28;10403168;28;20083;-64
2024/01/27 12:33:11;;;;;;;6.70;2.60;;;;;;;18.07;33.75;102170.88;10399748;28;20059;-65
2024/01/27 12:38:16;;;;;;;6.95;3.72;;;;;;;18.20;32.91;102179.66;10402416;28;20131;-65
2024/01/27 12:43:18;;;;;;;8.20;3.58;;;;;;;17.85;32.53;102153.75;10394053;28;21394;-64
2024/01/27 12:48:19;;;;;;;9.75;4.10;;;;;;;17.80;32.50;102166.72;10403674;28;20064;-63
2024/01/27 12:53:21;;;;;;;7.10;2.60;;;;;;;18.35;32.72;102156.81;10395304;28;20061;-63
2024/01/27 12:58:22;;;;;;;6.88;2.63;;;;;;;18.92;32.39;102148.50;10406300;28;20082;-63
2024/01/27 13:03:24;;;;;;;6.85;2.50;;;;;;;19.63;31.62;102136.88;10401080;28;20064;-62
2024/01/27 13:08:26;;;;;;;4.75;1.90;;;;;;;20.13;30.46;102127.91;10402403;28;20056;-62
2024/01/27 13:13:28;;;;;;;8.68;2.40;;;;;;;20.95;28.52;102123.91;10355805;28;21485;-63
2024/01/27 13:18:29;;;;;;;5.60;2.08;;;;;;;20.58;28.86;102121.09;10358982;28;20091;-65
2024/01/27 13:23:34;;;;;;;4.93;2.03;;;;;;;21.14;27.52;102104.03;10388580;28;20101;-65
2024/01/27 13:28:36;;;;;;;7.22;2.30;;;;;;;21.43;27.23;102116.59;10351993;28;20049;-65
2024/01/27 13:33:38;;;;;;;6.72;3.00;;;;;;;22.72;26.16;102123.72;10356247;28;22792;-65
2024/01/27 13:38:40;;;;;;;4.43;1.55;;;;;;;23.34;24.62;102120.03;10362901;28;20060;-65
2024/01/27 13:43:41;;;;;;;7.57;2.08;;;;;;;23.50;24.53;102120.13;10364517;28;20140;-64
2024/01/27 13:48:45;;;;;;;7.93;1.70;;;;;;;23.50;24.01;102102.97;10375979;28;20053;-65
2024/01/27 13:53:47;;;;;;;7.88;2.33;;;;;;;23.15;24.28;102097.56;10353730;28;20055;-65
2024/01/27 13:58:53;;;;;;;6.82;1.90;;;;;;;23.27;23.82;102095.41;10359056;28;20065;-65
2024/01/27 14:03:54;;;;;;;7.25;2.22;;;;;;;23.28;23.47;102091.66;10357734;28;20546;-66
2024/01/27 14:08:57;;;;;;;5.78;2.25;;;;;;;23.88;24.12;102093.41;10356886;28;20118;-64
2024/01/27 14:14:00;;;;;;;5.65;2.60;;;;;;;23.83;23.90;102084.88;10353854;28;20087;-66
2024/01/27 14:19:02;;;;;;;8.50;2.13;;;;;;;22.91;24.13;102082.78;10350049;28;20044;-65
2024/01/27 14:24:06;;;;;;;4.15;2.17;;;;;;;22.95;25.13;102076.03;10359237;28;20160;-65
2024/01/27 14:29:08;;;;;;;10.68;6.22;;;;;;;20.95;26.26;102085.16;10352638;28;20049;-65
2024/01/27 14:34:09;;;;;;;8.43;2.53;;;;;;;17.59;30.82;102081.31;10371999;28;20049;-65
2024/01/27 14:39:11;;;;;;;6.82;1.98;;;;;;;16.17;33.38;102084.28;10374881;28;20818;-65
2024/01/27 14:44:12;;;;;;;5.97;2.72;;;;;;;15.16;34.62;102066.53;10358134;28;20049;-64
2024/01/27 14:49:15;;;;;;;8.15;4.85;;;;;;;14.98;34.73;102073.19;10354007;28;20065;-65
2024/01/27 14:54:17;;;;;;;7.93;2.60;;;;;;;16.61;32.86;102071.94;10357520;28;20049;-66
2024/01/27 14:59:21;;;;;;;5.72;2.17;;;;;;;18.98;28.96;102058.91;10369762;28;20782;-64
2024/01/27 15:04:27;;;;;;;8.15;2.97;;;;;;;20.41;27.05;102063.16;10356137;28;20049;-65
2024/01/27 15:09:29;;;;;;;6.72;2.90;;;;;;;20.92;26.51;102058.38;10356850;28;20053;-65
2024/01/27 15:14:31;;;;;;;6.05;2.28;;;;;;;20.73;25.64;102057.47;10359054;28;20054;-64
2024/01/27 15:19:33;;;;;;;6.05;2.30;;;;;;;19.96;26.30;102061.91;10373149;28;20569;-65
2024/01/27 15:24:42;;;;;;;7.47;2.83;;;;;;;17.82;28.99;102059.72;10360222;28;20060;-66
2024/01/27 15:29:44;;;;;;;8.02;2.30;;;;;;;15.51;33.09;102064.97;10357534;28;20844;-65
2024/01/27 15:34:46;;;;;;;9.05;2.20;;;;;;;14.22;35.33;102064.94;10354776;28;20131;-65
2024/01/27 15:39:49;;;;;;;8.52;2.33;;;;;;;13.57;37.03;102068.28;10343883;28;20108;-66
2024/01/27 15:44:51;;;;;;;6.22;2.05;;;;;;;12.89;37.88;102064.50;10359290;28;20076;-64
2024/01/27 15:49:56;;;;;;;7.60;2.53;;;;;;;12.41;39.47;102064.69;10361561;28;20365;-66
2024/01/27 15:54:58;;;;;;;9.00;3.10;;;;;;;12.06;41.31;102050.78;10369232;28;20054;-66
2024/01/27 16:00:00;;;;;;;7.07;2.40;;;;;;;11.73;41.89;102039.25;10393334;28;20922;-66
2024/01/27 16:05:02;;;;;;;7.78;2.58;;;;;;;11.71;43.69;102062.50;10355745;28;20060;-64
2024/01/27 16:10:06;;;;;;;7.20;3.08;;;;;;;11.37;43.33;102088.34;10351865;28;20522;-64
2024/01/27 16:15:09;;;;;;;6.97;2.83;;;;;;;11.07;43.72;102082.88;10387772;28;20071;-64
2024/01/27 16:20:11;;;;;;;5.60;2.10;;;;;;;10.93;44.68;102087.13;10391880;28;20045;-65
2024/01/27 16:25:12;;;;;;;6.47;2.47;;;;;;;10.75;44.13;102086.31;10355725;28;20057;-64
2024/01/27 16:30:15;;;;;;;7.28;3.28;;;;;;;10.52;44.87;102081.28;10353986;28;21304;-65
2024/01/27 16:35:18;;;;;;;8.13;3.13;;;;;;;10.31;45.83;102083.22;10345612;28;20056;-65
2024/01/27 16:40:21;;;;;;;7.38;3.17;;;;;;;10.21;46.24;102082.84;10377734;28;20570;-66
2024/01/27 16:45:22;;;;;;;7.13;2.85;;;;;;;10.05;46.15;102064.94;10389477;28;20100;-65
2024/01/27 16:50:24;;;;;;;8.93;2.30;;;;;;;10.10;47.03;102091.31;10366153;28;20059;-64
2024/01/27 16:55:26;;;;;;;7.38;2.67;;;;;;;9.95;47.15;102081.44;10372391;28;20084;-66
2024/01/27 17:00:33;;;;;;;7.25;3.22;;;;;;;9.69;46.61;102063.13;10366326;28;21241;-66
2024/01/27 17:05:35;;;;;;;9.48;3.38;;;;;;;9.90;47.14;102093.16;10362641;28;20144;-65
2024/01/27 17:10:36;;;;;;;6.63;2.60;;;;;;;9.73;47.05;102098.44;10355766;28;20402;-65
2024/01/27 17:15:38;;;;;;;8.00;3.28;;;;;;;9.69;47.78;102095.03;10335200;28;20056;-64
2024/01/27 17:20:41;;;;;;;8.40;2.40;;;;;;;9.76;48.74;102095.63;10354902;28;20041;-65
2024/01/27 17:25:45;;;;;;;8.43;3.33;;;;;;;9.67;49.05;102088.09;10335732;28;20043;-65
2024/01/27 17:30:47;;;;;;;8.40;3.58;;;;;;;9.59;48.98;102087.59;10333852;28;26173;-65
2024/01/27 17:35:49;;;;;;;10.55;4.30;;;;;;;9.53;49.59;102097.59;10378352;28;20083;-65
2024/01/27 17:40:52;;;;;;;8.25;3.88;;;;;;;9.46;50.64;102085.50;10353378;28;20057;-66
2024/01/27 17:45:54;;;;;;;8.60;3.83;;;;;;;9.45;50.40;102102.38;10346995;28;20050;-66
2024/01/27 17:50:58;;;;;;;10.53;3.93;;;;;;;9.38;50.72;102103.59;10365004;28;20236;-66
2024/01/27 17:56:00;;;;;;;10.57;5.35;;;;;;;9.33;51.13;102097.63;10357525;28;20327;-65
2024/01/27 18:01:03;;;;;;;9.45;5.35;;;;;;;9.21;51.14;102099.06;10359037;28;20510;-67
2024/01/27 18:06:05;;;;;;;11.15;5.40;;;;;;;9.19;51.88;102101.78;10355444;28;20561;-65
2024/01/27 18:11:07;;;;;;;13.18;7.53;;;;;;;9.16;51.74;102115.22;10339103;28;20713;-65
2024/01/27 18:16:08;;;;;;;12.82;8.05;;;;;;;9.06;52.65;102107.72;10370220;28;20207;-64
2024/01/27 18:21:12;;;;;;;11.30;7.30;;;;;;;9.01;52.30;102105.28;10363891;28;20086;-65
2024/01/27 18:26:15;;;;;;;13.60;7.47;;;;;;;8.94;52.81;102103.81;10355731;28;20324;-65
2024/01/27 18:31:18;;;;;;;14.93;7.28;;;;;;;8.82;52.52;102100.75;10359554;28;20057;-65
2024/01/27 18:36:21;;;;;;;13.60;8.60;;;;;;;8.77;52.52;102100.09;10348415;28;21362;-65
2024/01/27 18:41:24;;;;;;;13.15;7.25;;;;;;;8.70;52.59;102105.75;10380448;28;20060;-66
2024/01/27 18:46:26;;;;;;;16.02;8.40;;;;;;;8.57;53.01;102100.09;10369907;28;20628;-65
2024/01/27 18:51:28;;;;;;;14.45;9.07;;;;;;;8.55;53.48;102099.31;10340729;28;20053;-64
2024/01/27 18:56:30;;;;;;;15.23;8.60;;;;;;;8.59;54.38;102108.88;10375627;28;20179;-65
2024/01/27 19:01:31;;;;;;;14.30;8.38;;;;;;;8.53;54.07;102110.00;10343351;28;20270;-67
2024/01/27 19:06:33;;;;;;;13.05;7.68;;;;;;;8.58;55.48;102117.75;10347495;28;20049;-66
2024/01/27 19:11:35;;;;;;;14.77;9.68;;;;;;;8.53;54.43;102109.09;10353733;28;20044;-67
2024/01/27 19:16:39;;;;;;;12.75;7.28;;;;;;;8.46;56.19;102105.84;10355678;28;20075;-65
2024/01/27 19:21:40;;;;;;;11.55;7.40;;;;;;;8.32;54.76;102090.50;10353190;28;20365;-65
2024/01/27 19:26:43;;;;;;;12.55;8.10;;;;;;;8.25;54.27;102099.63;10347697;28;20100;-65
2024/01/27 19:31:46;;;;;;;12.13;8.02;;;;;;;8.05;54.75;102096.00;10355951;28;20056;-66
2024/01/27 19:36:48;;;;;;;12.38;7.45;;;;;;;8.11;54.74;102109.00;10347697;28;20056;-67
2024/01/27 19:41:51;;;;;;;12.68;7.50;;;;;;;8.09;55.59;102104.69;10353768;28;20064;-64
2024/01/27 19:46:53;;;;;;;15.82;8.20;;;;;;;8.07;55.11;102112.69;10386536;28;20056;-64
2024/01/27 19:51:57;;;;;;;11.57;6.82;;;;;;;8.01;55.55;102112.09;10393424;28;20053;-64
2024/01/27 19:56:59;;;;;;;14.73;8.60;;;;;;;7.90;55.62;102107.22;10394044;28;20041;-64
2024/01/27 20:02:00;;;;;;;16.13;9.77;;;;;;;7.81;55.46;102099.59;10392830;28;20194;-64
2024/01/27 20:07:02;;;;;;;13.63;7.68;;;;;;;7.71;55.68;102099.97;10392348;28;20045;-64
2024/01/27 20:12:04;;;;;;;13.05;7.63;;;;;;;7.55;56.07;102090.88;10391475;28;20053;-64
2024/01/27 20:17:06;;;;;;;14.98;9.73;;;;;;;7.62;56.82;102089.75;10397615;28;20133;-63
2024/01/27 20:22:08;;;;;;;15.73;9.45;;;;;;;7.52;57.37;102091.00;10394881;28;20068;-63
2024/01/27 20:27:10;;;;;;;15.88;8.55;;;;;;;7.53;57.66;102084.81;10360938;28;20604;-64
2024/01/27 20:32:12;;;;;;;14.55;9.38;;;;;;;7.38;57.04;102095.03;10369657;28;20055;-64
2024/01/27 20:37:14;;;;;;;13.25;8.82;;;;;;;7.27;57.69;102089.31;10367328;28;20064;-64
2024/01/27 20:42:15;;;;;;;16.23;9.23;;;;;;;7.05;57.74;102095.38;10363885;28;20152;-64
2024/01/27 20:47:17;;;;;;;13.73;9.35;;;;;;;6.92;58.55;102088.81;10365414;28;20053;-63
2024/01/27 20:52:19;;;;;;;14.30;9.52;;;;;;;6.91;58.89;102097.66;10364074;28;20158;-64
2024/01/27 20:57:23;;;;;;;21.00;10.57;;;;;;;6.87;58.98;102090.75;10360380;28;20551;-64
2024/01/27 21:02:26;;;;;;;16.50;9.57;;;;;;;6.95;59.27;102083.41;10359373;28;20119;-66
2024/01/27 21:07:28;;;;;;;11.63;8.27;;;;;;;6.94;59.90;102086.97;10366133;28;20056;-63
2024/01/27 21:12:29;;;;;;;13.80;9.73;;;;;;;6.71;59.66;102072.78;10369551;28;20761;-64
2024/01/27 21:17:32;;;;;;;16.67;8.65;;;;;;;6.81;60.00;102086.53;10367162;28;21997;-65
2024/01/27 21:22:33;;;;;;;13.45;8.52;;;;;;;6.73;59.97;102078.88;10366847;28;20096;-67
2024/01/27 21:27:35;;;;;;;13.55;8.63;;;;;;;6.61;60.44;102079.31;10371518;28;20160;-65
2024/01/27 21:32:37;;;;;;;13.35;8.50;;;;;;;6.57;60.81;102077.66;10358371;28;20170;-65
2024/01/27 21:37:39;;;;;;;10.93;8.10;;;;;;;6.54;61.24;102072.47;10340441;28;20488;-64
2024/01/27 21:42:40;;;;;;;14.07;7.22;;;;;;;6.50;61.51;102065.56;10369292;28;20065;-64
2024/01/27 21:47:44;;;;;;;12.18;8.13;;;;;;;6.41;61.31;102050.00;10359907;28;20060;-66
2024/01/27 21:52:47;;;;;;;12.98;7.93;;;;;;;6.48;62.17;102060.31;10361232;28;20626;-65
2024/01/27 21:57:50;;;;;;;14.57;8.50;;;;;;;6.41;61.72;102066.78;10351222;28;20144;-64
2024/01/27 22:02:52;;;;;;;10.20;7.45;;;;;;;6.38;61.70;102058.94;10375892;28;20114;-63
2024/01/27 22:07:54;;;;;;;11.50;8.20;;;;;;;6.39;61.92;102057.16;10369665;28;20053;-63
2024/01/27 22:12:55;;;;;;;11.05;7.97;;;;;;;6.33;62.19;102047.63;10350800;28;20055;-64
2024/01/27 22:17:57;;;;;;;13.57;8.00;;;;;;;6.19;62.02;102048.09;10349377;28;20063;-63
2024/01/27 22:22:58;;;;;;;12.73;8.77;;;;;;;6.09;62.53;102033.47;10351601;28;20821;-64
2024/01/27 22:28:00;;;;;;;9.02;6.50;;;;;;;6.09;62.45;102044.88;10349121;28;20115;-65
2024/01/27 22:33:01;;;;;;;11.18;7.95;;;;;;;6.06;62.62;102044.13;10356125;28;20515;-65
2024/01/27 22:38:03;;;;;;;13.70;8.15;;;;;;;5.77;63.00;101999.19;10356978;28;20068;-63
2024/01/27 22:43:06;;;;;;;11.85;6.82;;;;;;;6.06;63.60;102054.72;10359241;28;20052;-64
2024/01/27 22:48:10;;;;;;;13.82;6.72;;;;;;;6.05;63.31;102045.94;10352074;28;20045;-64
2024/01/27 22:53:15;;;;;;;11.10;6.75;;;;;;;5.99;63.48;102033.78;10344982;28;20052;-64
2024/01/27 22:58:17;;;;;;;10.18;6.63;;;;;;;5.89;62.85;102048.16;10355342;28;20053;-64
2024/01/27 23:03:19;;;;;;;13.20;5.93;;;;;;;5.82;63.67;102046.63;10350555;28;20673;-64
2024/01/27 23:08:20;;;;;;;8.73;6.32;;;;;;;5.78;63.75;102040.59;10368136;28;20050;-63
2024/01/27 23:13:25;;;;;;;11.25;5.63;;;;;;;5.77;63.96;102044.13;10358753;28;20064;-63
2024/01/27 23:18:26;;;;;;;9.80;6.30;;;;;;;5.71;63.86;102022.34;10355351;28;20049;-64